sensor_id;sensor_type;location;lat;lon;timestamp;pressure;altitude;pressure_sealevel;temperature;humidity
16694;BME280;39538;52.196;9.892;2022-11-20T00:00:03;100250.59;;;-4.16;90.75
16694;BME280;39538;52.196;9.892;2022-11-20T00:02:29;100246.31;;;-4.19;91.02
16694;BME280;39538;52.196;9.892;2022-11-20T00:04:56;100250.75;;;-4.29;90.71
16694;BME280;39538;52.196;9.892;2022-11-20T00:07:23;100248.19;;;-4.30;91.20
16694;BME280;39538;52.196;9.892;2022-11-20T00:09:49;100249.13;;;-4.36;91.15
16694;BME280;39538;52.196;9.892;2022-11-20T00:12:17;100249.22;;;-4.42;91.74
16694;BME280;39538;52.196;9.892;2022-11-20T00:14:43;100251.03;;;-4.49;91.65
16694;BME280;39538;52.196;9.892;2022-11-20T00:17:10;100245.00;;;-4.51;92.03
16694;BME280;39538;52.196;9.892;2022-11-20T00:19:36;100242.41;;;-4.52;92.16
16694;BME280;39538;52.196;9.892;2022-11-20T00:22:03;100235.53;;;-4.53;92.52
16694;BME280;39538;52.196;9.892;2022-11-20T00:24:29;100244.13;;;-4.50;92.47
16694;BME280;39538;52.196;9.892;2022-11-20T00:26:56;100243.19;;;-4.46;92.98
16694;BME280;39538;52.196;9.892;2022-11-20T00:29:24;100244.09;;;-4.45;93.33
16694;BME280;39538;52.196;9.892;2022-11-20T00:31:50;100238.84;;;-4.42;93.48
16694;BME280;39538;52.196;9.892;2022-11-20T00:34:17;100235.41;;;-4.44;93.56
16694;BME280;39538;52.196;9.892;2022-11-20T00:36:43;100244.03;;;-4.43;93.30
16694;BME280;39538;52.196;9.892;2022-11-20T00:39:10;100238.06;;;-4.47;93.27
16694;BME280;39538;52.196;9.892;2022-11-20T00:41:36;100238.91;;;-4.47;93.19
16694;BME280;39538;52.196;9.892;2022-11-20T00:44:03;100242.47;;;-4.55;93.44
16694;BME280;39538;52.196;9.892;2022-11-20T00:46:31;100247.75;;;-4.61;92.90
16694;BME280;39538;52.196;9.892;2022-11-20T00:48:57;100240.84;;;-4.62;92.93
16694;BME280;39538;52.196;9.892;2022-11-20T00:51:26;100239.19;;;-4.68;92.80
16694;BME280;39538;52.196;9.892;2022-11-20T00:53:54;100232.34;;;-4.74;92.89
16694;BME280;39538;52.196;9.892;2022-11-20T00:56:21;100229.75;;;-4.72;93.25
16694;BME280;39538;52.196;9.892;2022-11-20T00:58:48;100233.97;;;-4.67;93.68
16694;BME280;39538;52.196;9.892;2022-11-20T01:01:17;100231.38;;;-4.63;93.88
16694;BME280;39538;52.196;9.892;2022-11-20T01:03:47;100234.81;;;-4.64;93.98
16694;BME280;39538;52.196;9.892;2022-11-20T01:06:19;100235.72;;;-4.67;93.92
16694;BME280;39538;52.196;9.892;2022-11-20T01:08:47;100233.06;;;-4.64;94.64
16694;BME280;39538;52.196;9.892;2022-11-20T01:11:16;100230.44;;;-4.59;94.36
16694;BME280;39538;52.196;9.892;2022-11-20T01:13:43;100224.44;;;-4.61;94.59
16694;BME280;39538;52.196;9.892;2022-11-20T01:16:13;100238.25;;;-4.62;94.18
16694;BME280;39538;52.196;9.892;2022-11-20T01:18:42;100226.19;;;-4.67;94.42
16694;BME280;39538;52.196;9.892;2022-11-20T01:21:12;100228.84;;;-4.70;94.19
16694;BME280;39538;52.196;9.892;2022-11-20T01:23:40;100225.38;;;-4.69;94.45
16694;BME280;39538;52.196;9.892;2022-11-20T01:26:08;100223.72;;;-4.73;94.71
16694;BME280;39538;52.196;9.892;2022-11-20T01:28:36;100223.72;;;-4.76;94.63
16694;BME280;39538;52.196;9.892;2022-11-20T01:31:11;100223.78;;;-4.79;94.74
16694;BME280;39538;52.196;9.892;2022-11-20T01:33:38;100222.09;;;-4.83;94.48
16694;BME280;39538;52.196;9.892;2022-11-20T01:36:06;100208.31;;;-4.85;94.67
16694;BME280;39538;52.196;9.892;2022-11-20T01:38:35;100204.91;;;-4.89;94.74
16694;BME280;39538;52.196;9.892;2022-11-20T01:41:02;100205.78;;;-4.90;94.95
16694;BME280;39538;52.196;9.892;2022-11-20T01:43:28;100206.66;;;-4.89;94.90
16694;BME280;39538;52.196;9.892;2022-11-20T01:46:14;100206.66;;;-4.92;95.36
16694;BME280;39538;52.196;9.892;2022-11-20T01:48:46;100201.47;;;-4.89;95.58
16694;BME280;39538;52.196;9.892;2022-11-20T01:51:21;100199.72;;;-4.87;95.35
16694;BME280;39538;52.196;9.892;2022-11-20T01:53:50;100191.06;;;-4.84;95.55
16694;BME280;39538;52.196;9.892;2022-11-20T01:56:18;100188.53;;;-4.89;95.14
16694;BME280;39538;52.196;9.892;2022-11-20T01:58:48;100183.41;;;-4.94;95.30
16694;BME280;39538;52.196;9.892;2022-11-20T02:01:17;100185.97;;;-4.92;95.44
16694;BME280;39538;52.196;9.892;2022-11-20T02:03:44;100181.72;;;-4.96;95.37
16694;BME280;39538;52.196;9.892;2022-11-20T02:06:15;100174.75;;;-4.94;95.63
16694;BME280;39538;52.196;9.892;2022-11-20T02:08:43;100171.31;;;-4.93;95.57
16694;BME280;39538;52.196;9.892;2022-11-20T02:11:11;100173.91;;;-4.95;95.06
16694;BME280;39538;52.196;9.892;2022-11-20T02:13:38;100168.78;;;-4.98;95.18
16694;BME280;39538;52.196;9.892;2022-11-20T02:16:13;100188.69;;;-5.03;95.17
16694;BME280;39538;52.196;9.892;2022-11-20T02:18:42;100175.81;;;-5.07;95.39
16694;BME280;39538;52.196;9.892;2022-11-20T02:21:15;100184.44;;;-5.09;95.27
16694;BME280;39538;52.196;9.892;2022-11-20T02:24:01;100175.88;;;-5.14;95.49
16694;BME280;39538;52.196;9.892;2022-11-20T02:26:30;100176.81;;;-5.19;95.01
16694;BME280;39538;52.196;9.892;2022-11-20T02:28:58;100178.53;;;-5.20;95.69
16694;BME280;39538;52.196;9.892;2022-11-20T02:31:26;100169.91;;;-5.19;95.54
16694;BME280;39538;52.196;9.892;2022-11-20T02:33:56;100170.84;;;-5.27;95.82
16694;BME280;39538;52.196;9.892;2022-11-20T02:36:24;100172.63;;;-5.31;95.83
16694;BME280;39538;52.196;9.892;2022-11-20T02:38:52;100169.22;;;-5.33;95.58
16694;BME280;39538;52.196;9.892;2022-11-20T02:41:20;100157.06;;;-5.28;95.49
16694;BME280;39538;52.196;9.892;2022-11-20T02:43:47;100161.34;;;-5.24;96.04
16694;BME280;39538;52.196;9.892;2022-11-20T02:46:13;100151.81;;;-5.22;95.93
16694;BME280;39538;52.196;9.892;2022-11-20T02:48:40;100150.94;;;-5.19;96.21
16694;BME280;39538;52.196;9.892;2022-11-20T02:51:06;100146.53;;;-5.13;95.88
16694;BME280;39538;52.196;9.892;2022-11-20T02:53:33;100151.72;;;-5.16;96.02
16694;BME280;39538;52.196;9.892;2022-11-20T02:55:59;100136.25;;;-5.19;95.49
16694;BME280;39538;52.196;9.892;2022-11-20T02:58:27;100144.91;;;-5.23;95.57
16694;BME280;39538;52.196;9.892;2022-11-20T03:00:54;100145.81;;;-5.27;95.71
16694;BME280;39538;52.196;9.892;2022-11-20T03:03:20;100141.69;;;-5.42;95.54
16694;BME280;39538;52.196;9.892;2022-11-20T03:05:47;100143.38;;;-5.41;95.23
16694;BME280;39538;52.196;9.892;2022-11-20T03:08:13;100144.31;;;-5.45;95.10
16694;BME280;39538;52.196;9.892;2022-11-20T03:10:40;100149.50;;;-5.46;95.67
16694;BME280;39538;52.196;9.892;2022-11-20T03:13:06;100145.28;;;-5.54;95.18
16694;BME280;39538;52.196;9.892;2022-11-20T03:15:35;100141.00;;;-5.56;95.27
16694;BME280;39538;52.196;9.892;2022-11-20T03:18:02;100140.16;;;-5.60;96.14
16694;BME280;39538;52.196;9.892;2022-11-20T03:20:28;100136.72;;;-5.62;96.49
16694;BME280;39538;52.196;9.892;2022-11-20T03:22:55;100141.84;;;-5.54;96.54
16694;BME280;39538;52.196;9.892;2022-11-20T03:25:22;100136.66;;;-5.56;96.88
16694;BME280;39538;52.196;9.892;2022-11-20T03:27:48;100134.13;;;-5.59;96.82
16694;BME280;39538;52.196;9.892;2022-11-20T03:30:15;100135.81;;;-5.58;96.49
16694;BME280;39538;52.196;9.892;2022-11-20T03:32:43;100133.28;;;-5.61;96.20
16694;BME280;39538;52.196;9.892;2022-11-20T03:35:09;100126.38;;;-5.59;96.23
16694;BME280;39538;52.196;9.892;2022-11-20T03:37:36;100132.44;;;-5.61;96.25
16694;BME280;39538;52.196;9.892;2022-11-20T03:40:03;100122.94;;;-5.61;96.17
16694;BME280;39538;52.196;9.892;2022-11-20T03:42:30;100116.88;;;-5.58;96.36
16694;BME280;39538;52.196;9.892;2022-11-20T03:45:13;100127.22;;;-5.58;96.31
16694;BME280;39538;52.196;9.892;2022-11-20T03:47:39;100122.91;;;-5.58;96.69
16694;BME280;39538;52.196;9.892;2022-11-20T03:50:09;100114.28;;;-5.57;96.72
16694;BME280;39538;52.196;9.892;2022-11-20T03:52:37;100120.25;;;-5.53;96.95
16694;BME280;39538;52.196;9.892;2022-11-20T03:55:04;100114.19;;;-5.51;96.73
16694;BME280;39538;52.196;9.892;2022-11-20T03:57:31;100127.22;;;-5.57;96.62
16694;BME280;39538;52.196;9.892;2022-11-20T03:59:57;100113.44;;;-5.60;96.51
16694;BME280;39538;52.196;9.892;2022-11-20T04:02:24;100119.47;;;-5.60;96.21
16694;BME280;39538;52.196;9.892;2022-11-20T04:04:50;100122.06;;;-5.60;96.31
16694;BME280;39538;52.196;9.892;2022-11-20T04:07:18;100114.31;;;-5.61;96.38
16694;BME280;39538;52.196;9.892;2022-11-20T04:09:45;100110.84;;;-5.59;95.81
16694;BME280;39538;52.196;9.892;2022-11-20T04:12:11;100108.25;;;-5.59;95.89
16694;BME280;39538;52.196;9.892;2022-11-20T04:14:38;100103.03;;;-5.56;96.28
16694;BME280;39538;52.196;9.892;2022-11-20T04:17:04;100101.28;;;-5.52;96.45
16694;BME280;39538;52.196;9.892;2022-11-20T04:19:31;100103.00;;;-5.51;96.58
16694;BME280;39538;52.196;9.892;2022-11-20T04:21:57;100091.84;;;-5.55;96.00
16694;BME280;39538;52.196;9.892;2022-11-20T04:24:26;100097.06;;;-5.61;95.96
16694;BME280;39538;52.196;9.892;2022-11-20T04:26:52;100095.31;;;-5.59;95.99
16694;BME280;39538;52.196;9.892;2022-11-20T04:29:19;100096.19;;;-5.58;95.81
16694;BME280;39538;52.196;9.892;2022-11-20T04:31:45;100097.03;;;-5.58;95.82
16694;BME280;39538;52.196;9.892;2022-11-20T04:34:12;100092.69;;;-5.57;96.06
16694;BME280;39538;52.196;9.892;2022-11-20T04:36:38;100099.50;;;-5.47;96.22
16694;BME280;39538;52.196;9.892;2022-11-20T04:39:06;100098.53;;;-5.38;96.36
16694;BME280;39538;52.196;9.892;2022-11-20T04:41:35;100097.59;;;-5.33;96.32
16694;BME280;39538;52.196;9.892;2022-11-20T04:44:03;100098.44;;;-5.32;95.71
16694;BME280;39538;52.196;9.892;2022-11-20T04:46:31;100100.13;;;-5.30;95.74
16694;BME280;39538;52.196;9.892;2022-11-20T04:48:59;100093.09;;;-5.20;95.71
16694;BME280;39538;52.196;9.892;2022-11-20T04:51:26;100100.81;;;-5.15;95.46
16694;BME280;39538;52.196;9.892;2022-11-20T04:53:53;100099.09;;;-5.15;95.53
16694;BME280;39538;52.196;9.892;2022-11-20T04:56:20;100098.22;;;-5.14;95.52
16694;BME280;39538;52.196;9.892;2022-11-20T04:58:47;100104.22;;;-5.10;95.59
16694;BME280;39538;52.196;9.892;2022-11-20T05:01:15;100105.81;;;-5.01;95.17
16694;BME280;39538;52.196;9.892;2022-11-20T05:03:43;100102.34;;;-5.00;95.43
16694;BME280;39538;52.196;9.892;2022-11-20T05:06:11;100097.13;;;-4.97;95.08
16694;BME280;39538;52.196;9.892;2022-11-20T05:08:38;100093.69;;;-4.96;95.26
16694;BME280;39538;52.196;9.892;2022-11-20T05:11:06;100090.06;;;-4.84;95.08
16694;BME280;39538;52.196;9.892;2022-11-20T05:13:33;100088.25;;;-4.81;95.10
16694;BME280;39538;52.196;9.892;2022-11-20T05:16:06;100089.94;;;-4.78;95.23
16694;BME280;39538;52.196;9.892;2022-11-20T05:18:33;100084.75;;;-4.75;94.85
16694;BME280;39538;52.196;9.892;2022-11-20T05:20:59;100089.88;;;-4.74;94.42
16694;BME280;39538;52.196;9.892;2022-11-20T05:23:26;100085.56;;;-4.73;94.26
16694;BME280;39538;52.196;9.892;2022-11-20T05:25:54;100083.00;;;-4.75;94.49
16694;BME280;39538;52.196;9.892;2022-11-20T05:28:21;100079.59;;;-4.78;94.23
16694;BME280;39538;52.196;9.892;2022-11-20T05:30:49;100083.00;;;-4.76;94.37
16694;BME280;39538;52.196;9.892;2022-11-20T05:33:17;100070.19;;;-4.84;94.63
16694;BME280;39538;52.196;9.892;2022-11-20T05:35:45;100073.94;;;-5.06;94.53
16694;BME280;39538;52.196;9.892;2022-11-20T05:38:11;100064.72;;;-5.24;94.10
16694;BME280;39538;52.196;9.892;2022-11-20T05:40:38;100060.28;;;-5.18;94.71
16694;BME280;39538;52.196;9.892;2022-11-20T05:43:04;100064.56;;;-5.15;94.61
16694;BME280;39538;52.196;9.892;2022-11-20T05:45:31;100066.31;;;-5.14;94.87
16694;BME280;39538;52.196;9.892;2022-11-20T05:47:58;100077.50;;;-5.14;94.60
16694;BME280;39538;52.196;9.892;2022-11-20T05:50:26;100063.69;;;-5.13;95.01
16694;BME280;39538;52.196;9.892;2022-11-20T05:52:53;100067.97;;;-5.10;95.14
16694;BME280;39538;52.196;9.892;2022-11-20T05:55:20;100075.75;;;-5.12;95.36
16694;BME280;39538;52.196;9.892;2022-11-20T05:57:46;100083.53;;;-5.12;95.55
16694;BME280;39538;52.196;9.892;2022-11-20T06:00:14;100076.66;;;-5.14;95.42
16694;BME280;39538;52.196;9.892;2022-11-20T06:02:40;100086.06;;;-5.09;95.82
16694;BME280;39538;52.196;9.892;2022-11-20T06:05:07;100090.31;;;-5.04;95.60
16694;BME280;39538;52.196;9.892;2022-11-20T06:07:35;100080.84;;;-5.05;95.81
16694;BME280;39538;52.196;9.892;2022-11-20T06:10:02;100082.34;;;-4.89;95.96
16694;BME280;39538;52.196;9.892;2022-11-20T06:12:31;100070.13;;;-4.81;96.44
16694;BME280;39538;52.196;9.892;2022-11-20T06:14:57;100078.66;;;-4.74;96.34
16694;BME280;39538;52.196;9.892;2022-11-20T06:17:24;100081.19;;;-4.68;96.21
16694;BME280;39538;52.196;9.892;2022-11-20T06:19:50;100083.56;;;-4.56;95.98
16694;BME280;39538;52.196;9.892;2022-11-20T06:22:17;100080.97;;;-4.56;95.96
16694;BME280;39538;52.196;9.892;2022-11-20T06:24:45;100073.81;;;-4.40;96.05
16694;BME280;39538;52.196;9.892;2022-11-20T06:27:11;100076.22;;;-4.29;95.59
16694;BME280;39538;52.196;9.892;2022-11-20T06:29:38;100076.25;;;-4.31;95.52
16694;BME280;39538;52.196;9.892;2022-11-20T06:32:04;100070.94;;;-4.25;94.80
16694;BME280;39538;52.196;9.892;2022-11-20T06:34:31;100069.19;;;-4.22;94.35
16694;BME280;39538;52.196;9.892;2022-11-20T06:36:57;100070.09;;;-4.25;94.22
16694;BME280;39538;52.196;9.892;2022-11-20T06:39:24;100064.94;;;-4.27;93.97
16694;BME280;39538;52.196;9.892;2022-11-20T06:41:51;100064.91;;;-4.25;94.00
16694;BME280;39538;52.196;9.892;2022-11-20T06:44:18;100057.06;;;-4.20;93.83
16694;BME280;39538;52.196;9.892;2022-11-20T06:46:45;100063.97;;;-4.19;93.65
16694;BME280;39538;52.196;9.892;2022-11-20T06:49:11;100063.78;;;-4.10;93.96
16694;BME280;39538;52.196;9.892;2022-11-20T06:51:38;100051.53;;;-4.02;93.73
16694;BME280;39538;52.196;9.892;2022-11-20T06:54:05;100063.63;;;-4.01;93.36
16694;BME280;39538;52.196;9.892;2022-11-20T06:56:31;100056.63;;;-3.96;93.27
16694;BME280;39538;52.196;9.892;2022-11-20T06:59:03;100057.31;;;-3.88;93.32
16694;BME280;39538;52.196;9.892;2022-11-20T07:01:30;100054.50;;;-3.75;93.04
16694;BME280;39538;52.196;9.892;2022-11-20T07:03:56;100045.75;;;-3.71;92.66
16694;BME280;39538;52.196;9.892;2022-11-20T07:06:23;100049.13;;;-3.66;92.24
16694;BME280;39538;52.196;9.892;2022-11-20T07:08:50;100039.44;;;-3.56;92.29
16694;BME280;39538;52.196;9.892;2022-11-20T07:11:17;100039.38;;;-3.55;92.11
16694;BME280;39538;52.196;9.892;2022-11-20T07:13:44;100035.88;;;-3.52;91.73
16694;BME280;39538;52.196;9.892;2022-11-20T07:16:11;100034.16;;;-3.53;91.45
16694;BME280;39538;52.196;9.892;2022-11-20T07:18:38;100038.25;;;-3.42;91.19
16694;BME280;39538;52.196;9.892;2022-11-20T07:21:06;100042.34;;;-3.31;90.89
16694;BME280;39538;52.196;9.892;2022-11-20T07:23:33;100046.47;;;-3.21;90.21
16694;BME280;39538;52.196;9.892;2022-11-20T07:26:02;100047.88;;;-3.08;88.88
16694;BME280;39538;52.196;9.892;2022-11-20T07:28:29;100045.09;;;-2.99;86.97
16694;BME280;39538;52.196;9.892;2022-11-20T07:30:55;100040.72;;;-2.97;84.82
16694;BME280;39538;52.196;9.892;2022-11-20T07:33:23;100049.00;;;-2.81;84.20
16694;BME280;39538;52.196;9.892;2022-11-20T07:35:50;100057.41;;;-2.69;83.85
16694;BME280;39538;52.196;9.892;2022-11-20T07:38:16;100047.75;;;-2.64;84.05
16694;BME280;39538;52.196;9.892;2022-11-20T07:40:43;100058.84;;;-2.56;84.31
16694;BME280;39538;52.196;9.892;2022-11-20T07:43:09;100050.06;;;-2.52;84.78
16694;BME280;39538;52.196;9.892;2022-11-20T07:45:36;100047.91;;;-2.70;85.29
16694;BME280;39538;52.196;9.892;2022-11-20T07:48:03;100052.97;;;-2.66;85.48
16694;BME280;39538;52.196;9.892;2022-11-20T07:50:31;100052.97;;;-2.64;85.76
16694;BME280;39538;52.196;9.892;2022-11-20T07:53:02;100051.88;;;-2.56;85.89
16694;BME280;39538;52.196;9.892;2022-11-20T07:55:28;100057.81;;;-2.50;86.31
16694;BME280;39538;52.196;9.892;2022-11-20T07:57:55;100065.53;;;-2.47;86.13
16694;BME280;39538;52.196;9.892;2022-11-20T08:00:22;100060.28;;;-2.44;86.46
16694;BME280;39538;52.196;9.892;2022-11-20T08:02:49;100060.41;;;-2.49;86.20
16694;BME280;39538;52.196;9.892;2022-11-20T08:05:15;100061.94;;;-2.42;86.32
16694;BME280;39538;52.196;9.892;2022-11-20T08:07:44;100065.31;;;-2.38;86.68
16694;BME280;39538;52.196;9.892;2022-11-20T08:10:13;100057.94;;;-2.55;86.33
16694;BME280;39538;52.196;9.892;2022-11-20T08:12:44;100052.53;;;-2.47;86.50
16694;BME280;39538;52.196;9.892;2022-11-20T08:15:28;100052.50;;;-2.44;86.79
16694;BME280;39538;52.196;9.892;2022-11-20T08:17:59;100058.41;;;-2.39;86.63
16694;BME280;39538;52.196;9.892;2022-11-20T08:20:26;100063.53;;;-2.36;87.05
16694;BME280;39538;52.196;9.892;2022-11-20T08:22:57;100072.06;;;-2.31;87.72
16694;BME280;39538;52.196;9.892;2022-11-20T08:25:24;100066.09;;;-2.35;87.29
16694;BME280;39538;52.196;9.892;2022-11-20T08:27:50;100065.09;;;-2.29;87.37
16694;BME280;39538;52.196;9.892;2022-11-20T08:30:17;100061.78;;;-2.36;87.34
16694;BME280;39538;52.196;9.892;2022-11-20T08:32:43;100063.13;;;-2.55;87.80
16694;BME280;39538;52.196;9.892;2022-11-20T08:35:09;100067.88;;;-2.37;88.00
16694;BME280;39538;52.196;9.892;2022-11-20T08:37:36;100062.25;;;-2.20;87.88
16694;BME280;39538;52.196;9.892;2022-11-20T08:40:09;100071.44;;;-2.05;87.68
16694;BME280;39538;52.196;9.892;2022-11-20T08:42:36;100066.09;;;-2.00;86.52
16694;BME280;39538;52.196;9.892;2022-11-20T08:45:03;100058.47;;;-2.08;85.67
16694;BME280;39538;52.196;9.892;2022-11-20T08:47:30;100061.31;;;-2.17;83.85
16694;BME280;39538;52.196;9.892;2022-11-20T08:49:56;100064.03;;;-2.22;82.79
16694;BME280;39538;52.196;9.892;2022-11-20T08:52:23;100068.47;;;-2.25;81.92
16694;BME280;39538;52.196;9.892;2022-11-20T08:54:49;100064.09;;;-2.23;81.00
16694;BME280;39538;52.196;9.892;2022-11-20T08:57:17;100059.75;;;-2.23;80.19
16694;BME280;39538;52.196;9.892;2022-11-20T08:59:43;100062.34;;;-2.23;79.52
16694;BME280;39538;52.196;9.892;2022-11-20T09:02:11;100055.38;;;-2.22;79.29
16694;BME280;39538;52.196;9.892;2022-11-20T09:04:37;100068.84;;;-2.05;79.26
16694;BME280;39538;52.196;9.892;2022-11-20T09:07:04;100067.00;;;-2.03;79.35
16694;BME280;39538;52.196;9.892;2022-11-20T09:09:30;100065.16;;;-1.98;79.05
16694;BME280;39538;52.196;9.892;2022-11-20T09:11:57;100050.75;;;-2.09;77.13
16694;BME280;39538;52.196;9.892;2022-11-20T09:14:25;100047.94;;;-2.02;76.20
16694;BME280;39538;52.196;9.892;2022-11-20T09:16:54;100056.81;;;-1.78;76.57
16694;BME280;39538;52.196;9.892;2022-11-20T09:19:20;100055.69;;;-1.67;76.16
16694;BME280;39538;52.196;9.892;2022-11-20T09:21:47;100060.75;;;-1.63;75.61
16694;BME280;39538;52.196;9.892;2022-11-20T09:24:13;100052.72;;;-1.55;75.56
16694;BME280;39538;52.196;9.892;2022-11-20T09:26:40;100035.56;;;-1.62;76.21
16694;BME280;39538;52.196;9.892;2022-11-20T09:29:06;100025.31;;;-1.68;75.77
16694;BME280;39538;52.196;9.892;2022-11-20T09:31:34;100018.44;;;-1.70;75.88
16694;BME280;39538;52.196;9.892;2022-11-20T09:34:01;100027.56;;;-1.56;75.62
16694;BME280;39538;52.196;9.892;2022-11-20T09:36:27;100045.75;;;-1.23;75.62
16694;BME280;39538;52.196;9.892;2022-11-20T09:38:54;100035.50;;;-1.01;74.66
16694;BME280;39538;52.196;9.892;2022-11-20T09:41:41;100040.13;;;-0.81;72.66
16694;BME280;39538;52.196;9.892;2022-11-20T09:44:25;100041.63;;;-0.48;72.19
16694;BME280;39538;52.196;9.892;2022-11-20T09:46:59;100050.84;;;-0.11;71.68
16694;BME280;39538;52.196;9.892;2022-11-20T09:49:34;100042.25;;;-0.14;69.42
16694;BME280;39538;52.196;9.892;2022-11-20T09:52:12;100042.69;;;-0.02;70.99
16694;BME280;39538;52.196;9.892;2022-11-20T09:54:43;100027.31;;;-0.36;70.98
16694;BME280;39538;52.196;9.892;2022-11-20T09:57:11;100015.88;;;-0.58;71.47
16694;BME280;39538;52.196;9.892;2022-11-20T09:59:41;100019.69;;;-0.95;71.13
16694;BME280;39538;52.196;9.892;2022-11-20T10:02:16;100007.25;;;-1.14;71.61
16694;BME280;39538;52.196;9.892;2022-11-20T10:04:51;100006.13;;;-1.35;71.99
16694;BME280;39538;52.196;9.892;2022-11-20T10:07:22;100007.59;;;-0.18;70.88
16694;BME280;39538;52.196;9.892;2022-11-20T10:09:52;100015.06;;;1.94;65.80
16694;BME280;39538;52.196;9.892;2022-11-20T10:12:29;100015.22;;;3.95;58.37
16694;BME280;39538;52.196;9.892;2022-11-20T10:15:10;100019.81;;;7.39;51.55
16694;BME280;39538;52.196;9.892;2022-11-20T10:17:58;100032.44;;;9.99;45.20
16694;BME280;39538;52.196;9.892;2022-11-20T10:20:30;100046.63;;;11.99;40.77
16694;BME280;39538;52.196;9.892;2022-11-20T10:23:19;100044.34;;;13.58;36.87
16694;BME280;39538;52.196;9.892;2022-11-20T10:25:56;100068.03;;;14.86;34.56
16694;BME280;39538;52.196;9.892;2022-11-20T10:28:45;100057.16;;;15.43;32.60
16694;BME280;39538;52.196;9.892;2022-11-20T10:31:28;100057.63;;;14.26;32.75
16694;BME280;39538;52.196;9.892;2022-11-20T10:34:00;100058.72;;;12.55;34.04
16694;BME280;39538;52.196;9.892;2022-11-20T10:36:34;100054.25;;;11.60;36.08
16694;BME280;39538;52.196;9.892;2022-11-20T10:39:06;100048.72;;;10.05;37.24
16694;BME280;39538;52.196;9.892;2022-11-20T10:41:41;100042.16;;;8.27;40.87
16694;BME280;39538;52.196;9.892;2022-11-20T10:44:12;100041.06;;;9.54;39.78
16694;BME280;39538;52.196;9.892;2022-11-20T10:46:43;100038.09;;;9.35;40.15
16694;BME280;39538;52.196;9.892;2022-11-20T10:49:16;100037.41;;;8.19;41.21
16694;BME280;39538;52.196;9.892;2022-11-20T10:51:53;100042.75;;;6.69;43.45
16694;BME280;39538;52.196;9.892;2022-11-20T10:54:32;100041.81;;;6.27;45.23
16694;BME280;39538;52.196;9.892;2022-11-20T10:57:10;100031.13;;;5.23;47.52
16694;BME280;39538;52.196;9.892;2022-11-20T10:59:51;100025.94;;;5.22;48.16
16694;BME280;39538;52.196;9.892;2022-11-20T11:02:24;100031.25;;;4.57;49.55
16694;BME280;39538;52.196;9.892;2022-11-20T11:04:53;100031.97;;;4.27;50.73
16694;BME280;39538;52.196;9.892;2022-11-20T11:07:22;100020.09;;;3.50;52.28
16694;BME280;39538;52.196;9.892;2022-11-20T11:09:52;100017.97;;;2.07;56.49
16694;BME280;39538;52.196;9.892;2022-11-20T11:12:20;100003.53;;;1.57;59.39
16694;BME280;39538;52.196;9.892;2022-11-20T11:14:49;99997.94;;;1.24;60.62
16694;BME280;39538;52.196;9.892;2022-11-20T11:17:25;99996.72;;;1.53;60.25
16694;BME280;39538;52.196;9.892;2022-11-20T11:20:17;99990.69;;;1.51;60.16
16694;BME280;39538;52.196;9.892;2022-11-20T11:22:45;99998.16;;;1.60;59.85
16694;BME280;39538;52.196;9.892;2022-11-20T11:25:20;99998.06;;;1.63;59.75
16694;BME280;39538;52.196;9.892;2022-11-20T11:27:47;100003.75;;;1.73;59.67
16694;BME280;39538;52.196;9.892;2022-11-20T11:30:17;99997.28;;;1.39;60.23
16694;BME280;39538;52.196;9.892;2022-11-20T11:32:44;99983.75;;;1.30;60.64
16694;BME280;39538;52.196;9.892;2022-11-20T11:35:21;99984.47;;;1.11;61.50
16694;BME280;39538;52.196;9.892;2022-11-20T11:37:48;99985.66;;;1.46;61.50
16694;BME280;39538;52.196;9.892;2022-11-20T11:40:17;99982.13;;;1.88;61.69
16694;BME280;39538;52.196;9.892;2022-11-20T11:42:52;99989.81;;;2.12;60.37
16694;BME280;39538;52.196;9.892;2022-11-20T11:45:20;99976.28;;;2.02;58.97
16694;BME280;39538;52.196;9.892;2022-11-20T11:47:47;99979.84;;;1.60;60.27
16694;BME280;39538;52.196;9.892;2022-11-20T11:50:18;99982.84;;;1.31;61.41
16694;BME280;39538;52.196;9.892;2022-11-20T11:52:51;99987.81;;;0.93;62.30
16694;BME280;39538;52.196;9.892;2022-11-20T11:55:26;99986.03;;;1.17;63.55
16694;BME280;39538;52.196;9.892;2022-11-20T11:58:02;99988.81;;;1.55;63.40
16694;BME280;39538;52.196;9.892;2022-11-20T12:00:31;99978.00;;;2.03;62.39
16694;BME280;39538;52.196;9.892;2022-11-20T12:03:07;99969.06;;;2.07;60.85
16694;BME280;39538;52.196;9.892;2022-11-20T12:05:39;99966.72;;;2.22;60.26
16694;BME280;39538;52.196;9.892;2022-11-20T12:08:15;99955.72;;;2.89;59.09
16694;BME280;39538;52.196;9.892;2022-11-20T12:10:48;99956.53;;;3.78;56.44
16694;BME280;39538;52.196;9.892;2022-11-20T12:13:40;99951.16;;;3.64;54.51
16694;BME280;39538;52.196;9.892;2022-11-20T12:16:11;99949.38;;;3.65;54.80
16694;BME280;39538;52.196;9.892;2022-11-20T12:18:39;99953.31;;;3.56;55.78
16694;BME280;39538;52.196;9.892;2022-11-20T12:21:18;99950.22;;;3.30;55.86
16694;BME280;39538;52.196;9.892;2022-11-20T12:23:58;99951.88;;;2.97;56.83
16694;BME280;39538;52.196;9.892;2022-11-20T12:26:40;99952.25;;;2.70;57.79
16694;BME280;39538;52.196;9.892;2022-11-20T12:29:13;99957.03;;;2.62;58.58
16694;BME280;39538;52.196;9.892;2022-11-20T12:32:14;99963.34;;;1.99;59.77
16694;BME280;39538;52.196;9.892;2022-11-20T12:34:53;99953.88;;;1.97;61.72
16694;BME280;39538;52.196;9.892;2022-11-20T12:37:32;99945.94;;;3.97;58.87
16694;BME280;39538;52.196;9.892;2022-11-20T12:40:15;99942.03;;;6.21;52.10
16694;BME280;39538;52.196;9.892;2022-11-20T12:42:55;99939.28;;;6.22;49.93
16694;BME280;39538;52.196;9.892;2022-11-20T12:45:56;99944.56;;;6.08;49.81
16694;BME280;39538;52.196;9.892;2022-11-20T12:48:42;99943.69;;;5.18;50.76
16694;BME280;39538;52.196;9.892;2022-11-20T12:54:38;99947.72;;;3.79;55.31
16694;BME280;39538;52.196;9.892;2022-11-20T12:57:16;99938.84;;;2.95;58.43
16694;BME280;39538;52.196;9.892;2022-11-20T12:59:56;99938.25;;;2.71;60.50
16694;BME280;39538;52.196;9.892;2022-11-20T13:02:33;99930.75;;;3.00;60.12
16694;BME280;39538;52.196;9.892;2022-11-20T13:05:18;99930.28;;;3.78;58.65
16694;BME280;39538;52.196;9.892;2022-11-20T13:07:46;99930.72;;;3.87;57.42